logo
Rechercher aéroport 
image banner adimage banner adimage banner ad
image banner ad

HKRC - Malkamari

Situé à , Kenya

ICAO - , IATA -

Données fournies par Airmate  

Information générale

Coordonnées: N4°11'49" E40°43'4"
Élévation : 2392 feet MSL.
 
Voir autres Aéroports à North-Eastern Province

Données opérationnelles

Special qualification required
Heure actuelle UTC:
Heure actuelle locale:
Météo à : - ( 0 km )
METAR: EKRN 290806Z 12008KT 9999 FEW002 15/12 Q1014
Voir NOTAMs / SUP AIP / TFR affectant cet aéroport [VIEW]
Fréquences de communication: [VIEW]

Pistes:

Coordonnées de l'aéroport

Adresse: Kenya

Vue satellite de HKRC